Thursday, November 23, 2017, 7:20 PM EST
Back to Local

KBAF, Westfield Barnes Municipal

Location: Westfield, MA, United States Lat: 42.167
Local Time: 7:20 PM EST ( 0:20 GMT) Lon: -72.717
Time Zone: US/Eastern Elev: 272 ft

Show me the last for .
Show Decoded

2017-11-23 18:53 METAR KBAF 232353Z 00000KT 10SM CLR 00/M06 A2998 RMK AO2 SLP160 T00001056 10061
                 21006 50002 =
2017-11-23 17:53 METAR KBAF 232253Z 27003KT 10SM CLR 02/M08 A2999 RMK AO2 SLP160 T00171078 =
2017-11-23 16:53 METAR KBAF 232153Z 30005KT 10SM CLR 02/M08 A2998 RMK AO2 SLP159 T00221078 =
2017-11-23 15:53 METAR KBAF 232053Z 30008KT 10SM CLR 04/M08 A2998 RMK AO2 SLP157 T00391083 55009
                 =
2017-11-23 14:53 METAR KBAF 231953Z 30005KT 10SM CLR 06/M09 A2997 RMK AO2 SLP155 T00561089 =
2017-11-23 13:53 METAR KBAF 231853Z 29006KT 10SM CLR 06/M09 A2999 RMK AO2 SLP160 T00561094 =
2017-11-23 12:53 METAR KBAF 231753Z 29007KT 10SM CLR 05/M08 A3000 RMK AO2 SLP165 T00501083 10050
                 21017 58018 =
2017-11-23 11:53 METAR KBAF 231653Z 32007KT 10SM CLR 04/M08 A3002 RMK AO2 SLP170 T00441083 =
2017-11-23 10:53 METAR KBAF 231553Z 30006KT 10SM CLR 03/M07 A3004 RMK AO2 SLP179 T00331072 =
2017-11-23 09:53 METAR KBAF 231453Z 32008KT 10SM CLR 02/M07 A3006 RMK AO2 SLP183 T00171072 53003
                 =
2017-11-23 08:53 METAR KBAF 231353Z 34012KT 10SM CLR 01/M07 A3005 RMK AO2 SLP182 T00061067 =
2017-11-23 07:53 METAR KBAF 231253Z 33009KT 10SM CLR 00/M07 A3005 RMK AO2 SLP181 T00001067 =
2017-11-23 06:53 METAR KBAF 231153Z 34008KT 10SM CLR M01/M07 A3005 RMK AO2 SLP181 70010 T10111067
                 10006 21039 51009 =
2017-11-23 05:53 METAR KBAF 231053Z AUTO 35009KT 10SM CLR M01/M06 A3004 RMK AO2 SLP177 T10061061
                 =
2017-11-23 04:53 METAR KBAF 230953Z AUTO 17003KT 10SM CLR M02/M07 A3006 RMK AO2 SLP184 T10221067
                 =
2017-11-23 03:53 METAR KBAF 230853Z AUTO 33007KT 10SM CLR M01/M07 A3002 RMK AO2 SLP170 T10061067
                 51002 =
2017-11-23 02:53 METAR KBAF 230753Z AUTO 33004KT 10SM CLR M01/M07 A3002 RMK AO2 SLP169 T10111067
                 =
2017-11-23 01:53 METAR KBAF 230653Z AUTO 34010KT 10SM CLR 01/M07 A3002 RMK AO2 SLP171 T00061067 =
2017-11-23 00:53 METAR KBAF 230553Z AUTO 30006KT 10SM CLR 00/M06 A3001 RMK AO2 SLP169 T00001061
                 10039 20000 51014 =
2017-11-22 23:53 METAR KBAF 230453Z AUTO 32007G19KT 10SM SCT040 02/M06 A3001 RMK AO2 SLP166
                 T00171056 400720017 =
2017-11-22 22:53 METAR KBAF 230353Z AUTO 32013KT 10SM OVC039 03/M04 A2999 RMK AO2 SLP160
                 T00281039 =
2017-11-22 21:53 METAR KBAF 230253Z 31010KT 10SM OVC037 03/M03 A2997 RMK AO2 SLP154 T00331028
                 53009 =
2017-11-22 20:53 METAR KBAF 230153Z 32018G22KT 10SM OVC041 03/M03 A2996 RMK AO2 SLP149 T00331028
                 =
2017-11-22 19:53 METAR KBAF 230053Z 32012G23KT 10SM OVC046 04/M02 A2995 RMK AO2 PK WND 33027/0037
                 SLP147 T00391022 =

Support USWX by starting your Amazon purchase here.